Time;durP1;ratioP1;P1;durP2;ratioP2;P2;SDS_P1;SDS_P2;PMS_P1;PMS_P2;Temp;Humidity;BMP_temperature;BMP_pressure;BME280_temperature;BME280_humidity;BME280_pressure;Samples;Min_cycle;Max_cycle;Signal;HPM_P1;HPM_P2
2022/02/04 00:21:56;;;;;;;;;;;;;;;7.94;72.33;100157.16;7365185;19;19925;-62
2022/02/04 00:24:21;;;;;;;;;;;;;;;7.92;72.66;100153.72;7362588;19;20341;-61
2022/02/04 00:26:55;;;;;;;;;;;;;;;7.92;72.43;100152.88;7361034;19;19945;-61
2022/02/04 00:29:37;;;;;;;;;;;;;;;7.92;72.35;100158.94;7360526;19;19931;-61
2022/02/04 00:32:06;;;;;;;;;;;;;;;7.90;72.54;100155.50;7367072;19;20014;-60
2022/02/04 00:34:42;;;;;;;;;;;;;;;7.90;72.65;100165.03;7359382;19;19979;-60
2022/02/04 00:37:22;;;;;;;;;;;;;;;7.89;72.25;100156.38;7361647;19;19948;-60
2022/02/04 00:39:56;;;;;;;;;;;;;;;7.87;72.50;100160.78;7361835;19;19932;-61
2022/02/04 00:42:21;;;;;;;;;;;;;;;7.86;72.32;100158.22;7361523;19;19926;-60
2022/02/04 00:44:48;;;;;;;;;;;;;;;7.83;72.47;100159.13;7358462;19;19931;-60
2022/02/04 00:47:21;;;;;;;;;;;;;;;7.82;72.34;100161.75;7371439;19;19918;-61
2022/02/04 00:52:30;;;;;;;;;;;;;;;7.76;72.35;100157.53;7367190;19;19951;-59
2022/02/04 00:55:12;;;;;;;;;;;;;;;7.75;72.82;100155.78;7361458;19;19925;-59
2022/02/04 01:06:25;;;;;;;;;;;;;;;7.74;72.56;100148.91;7366020;19;19922;-61
2022/02/04 01:27:25;;;;;;;;;;;;;;;7.56;72.42;100172.66;7363735;19;20615;-61
2022/02/04 01:30:38;;;;;;;;;;;;;;;7.53;72.65;100169.22;7364786;19;19922;-60
2022/02/04 01:32:36;;;;;;;;;;;;;;;7.51;72.69;100158.00;7372772;19;19954;-59
2022/02/04 01:35:02;;;;;;;;;;;;;;;7.49;72.58;100159.75;7373827;19;19919;-59
2022/02/04 01:37:27;;;;;;;;;;;;;;;7.47;72.58;100165.88;7367107;19;20284;-60
2022/02/04 01:39:52;;;;;;;;;;;;;;;7.45;73.05;100178.03;7372984;19;19925;-60
2022/02/04 01:42:18;;;;;;;;;;;;;;;7.42;72.77;100171.16;7360601;19;20576;-61
2022/02/04 01:44:43;;;;;;;;;;;;;;;7.40;72.59;100170.34;7362688;19;19934;-60
2022/02/04 01:47:09;;;;;;;;;;;;;;;7.38;72.71;100177.28;7362114;19;20622;-59
2022/02/04 01:49:36;;;;;;;;;;;;;;;7.36;72.55;100173.88;7363810;19;19923;-61
2022/02/04 01:52:02;;;;;;;;;;;;;;;7.35;72.77;100185.16;7362431;19;19981;-61
2022/02/04 01:54:27;;;;;;;;;;;;;;;7.32;72.71;100182.59;7359121;19;20300;-60
2022/02/04 01:56:53;;;;;;;;;;;;;;;7.31;72.57;100188.69;7360726;19;19963;-60
2022/02/04 01:59:18;;;;;;;;;;;;;;;7.30;72.46;100199.97;7363115;19;19918;-60
2022/02/04 02:01:44;;;;;;;;;;;;;;;7.28;72.74;100199.13;7364787;19;20829;-60
2022/02/04 02:04:12;;;;;;;;;;;;;;;7.25;72.82;100202.63;7360070;19;19930;-61
2022/02/04 02:06:45;;;;;;;;;;;;;;;7.23;72.98;100199.19;7360952;19;19934;-59
2022/02/04 02:09:11;;;;;;;;;;;;;;;7.22;72.64;100212.22;7360918;19;19927;-61
2022/02/04 02:11:36;;;;;;;;;;;;;;;7.19;72.51;100199.25;7364185;19;20723;-61
2022/02/04 02:14:05;;;;;;;;;;;;;;;7.17;72.88;100191.50;7358251;19;20592;-60
2022/02/04 02:33:18;;;;;;;;;;;;;;;7.03;72.61;100211.66;7362999;19;19958;-60
2022/02/04 02:49:02;;;;;;;;;;;;;;;6.91;72.96;100217.91;7366297;19;19922;-60
2022/02/04 02:51:56;;;;;;;;;;;;;;;6.87;72.79;100216.22;7361656;19;19919;-59
2022/02/04 02:59:30;;;;;;;;;;;;;;;6.78;72.89;100208.56;7347214;19;20367;-60
2022/02/04 03:02:04;;;;;;;;;;;;;;;6.65;72.59;100199.28;6036031;19;10000535;-61
2022/02/04 03:04:29;;;;;;;;;;;;;;;6.73;73.14;100231.13;2740689;19;10001993;-60
2022/02/04 03:06:54;;;;;;;;;;;;;;;6.71;73.20;100227.72;7355951;19;19922;-60
2022/02/04 03:09:19;;;;;;;;;;;;;;;6.68;73.04;100231.19;7365792;19;19923;-59
2022/02/04 03:11:45;;;;;;;;;;;;;;;6.66;72.86;100224.34;7354641;19;19949;-59
2022/02/04 03:14:10;;;;;;;;;;;;;;;6.65;72.73;100230.41;7360034;19;19915;-61
2022/02/04 03:16:37;;;;;;;;;;;;;;;6.62;72.99;100233.03;7363890;19;19952;-60
2022/02/04 03:19:04;;;;;;;;;;;;;;;6.60;73.19;100238.25;7365262;19;19936;-60
2022/02/04 03:21:42;;;;;;;;;;;;;;;6.57;73.14;100235.69;7360016;19;19948;-60
2022/02/04 03:24:11;;;;;;;;;;;;;;;6.55;72.90;100236.59;7362291;19;19975;-60
2022/02/04 03:29:08;;;;;;;;;;;;;;;6.46;72.70;100228.06;7362214;19;20451;-60
2022/02/04 03:31:40;;;;;;;;;;;;;;;6.42;72.97;100228.97;7365181;19;19922;-59
2022/02/04 03:34:05;;;;;;;;;;;;;;;6.36;72.47;100229.06;7358911;19;19914;-61
2022/02/04 03:36:31;;;;;;;;;;;;;;;6.32;72.37;100232.56;7368180;19;19926;-60
2022/02/04 03:38:56;;;;;;;;;;;;;;;6.27;72.32;100233.50;7367677;19;20685;-59
2022/02/04 03:41:21;;;;;;;;;;;;;;;6.19;72.61;100231.88;7370496;19;20356;-60
2022/02/04 03:43:47;;;;;;;;;;;;;;;6.13;72.54;100231.06;7350954;19;21570;-61
2022/02/04 03:46:12;;;;;;;;;;;;;;;6.06;72.54;100245.00;7369703;19;19921;-60
2022/02/04 03:48:37;;;;;;;;;;;;;;;6.00;72.17;100250.25;7371403;19;19962;-59
2022/02/04 03:51:03;;;;;;;;;;;;;;;5.93;72.39;100250.31;7369323;19;19994;-59
2022/02/04 03:53:28;;;;;;;;;;;;;;;5.85;72.49;100264.19;7362133;19;19918;-61
2022/02/04 03:55:53;;;;;;;;;;;;;;;5.78;72.07;100260.81;7364741;19;19919;-59
2022/02/04 03:58:19;;;;;;;;;;;;;;;5.71;72.39;100265.19;7353088;19;19978;-59
2022/02/04 04:00:44;;;;;;;;;;;;;;;5.66;72.40;100266.09;7365155;19;19919;-60
2022/02/04 04:03:09;;;;;;;;;;;;;;;5.58;72.41;100258.44;7369660;19;19950;-60
2022/02/04 04:05:43;;;;;;;;;;;;;;;5.52;72.46;100253.28;7356752;19;20368;-59
2022/02/04 04:08:08;;;;;;;;;;;;;;;5.46;72.69;100254.19;7366458;19;20022;-59
2022/02/04 04:10:39;;;;;;;;;;;;;;;5.40;72.53;100251.66;7366444;19;20691;-60
2022/02/04 04:13:05;;;;;;;;;;;;;;;5.34;72.70;100256.91;7365437;19;19919;-59
2022/02/04 04:15:30;;;;;;;;;;;;;;;5.28;72.42;100258.69;7361773;19;19965;-60
2022/02/04 04:17:55;;;;;;;;;;;;;;;5.22;72.37;100254.44;7368068;19;19930;-60
2022/02/04 04:20:22;;;;;;;;;;;;;;;5.17;72.89;100258.75;7364573;19;19926;-59
2022/02/04 04:22:48;;;;;;;;;;;;;;;5.12;72.70;100260.53;7364720;19;20408;-60
2022/02/04 04:25:14;;;;;;;;;;;;;;;5.07;72.77;100264.88;7365236;19;19923;-60
2022/02/04 04:27:42;;;;;;;;;;;;;;;5.02;73.06;100271.81;7362561;19;19930;-61
2022/02/04 04:30:11;;;;;;;;;;;;;;;4.97;72.98;100278.75;7366290;19;19990;-58
2022/02/04 04:32:37;;;;;;;;;;;;;;;4.91;72.63;100275.31;7365703;19;19934;-60
2022/02/04 04:35:02;;;;;;;;;;;;;;;4.86;72.71;100282.25;7366346;19;20415;-60
2022/02/04 04:37:28;;;;;;;;;;;;;;;4.82;72.90;100284.91;7368178;19;20002;-60
2022/02/04 05:28:55;;;;;;;;;;;;;;;4.10;73.84;100303.28;7364633;19;19922;-59
2022/02/04 05:31:20;;;;;;;;;;;;;;;4.08;74.37;100307.59;7365963;19;19918;-59
2022/02/04 05:33:46;;;;;;;;;;;;;;;4.07;74.39;100305.91;7365119;19;19927;-60
2022/02/04 05:36:11;;;;;;;;;;;;;;;4.06;74.48;100312.78;7367076;19;19918;-61
2022/02/04 05:38:39;;;;;;;;;;;;;;;4.05;74.14;100310.19;7359733;19;19923;-60
2022/02/04 05:41:06;;;;;;;;;;;;;;;4.02;74.23;100308.47;7366513;19;19915;-61
2022/02/04 05:43:34;;;;;;;;;;;;;;;4.03;74.17;100309.34;7367052;19;19923;-60
2022/02/04 05:46:09;;;;;;;;;;;;;;;4.01;74.59;100314.53;7366817;19;19930;-60
2022/02/04 05:48:37;;;;;;;;;;;;;;;3.99;74.61;100317.97;7366922;19;20329;-61
2022/02/04 05:51:25;;;;;;;;;;;;;;;3.97;74.50;100307.63;7365141;19;19919;-60
2022/02/04 05:56:28;;;;;;;;;;;;;;;3.95;74.42;100314.50;7356187;19;19951;-60
2022/02/04 05:59:25;;;;;;;;;;;;;;;3.94;74.83;100309.34;7366920;19;20194;-61
2022/02/04 06:10:06;;;;;;;;;;;;;;;3.89;74.95;100312.81;7365479;19;19922;-61
2022/02/04 06:12:49;;;;;;;;;;;;;;;3.90;75.24;100311.06;7263919;19;2004631;-61
2022/02/04 06:23:26;;;;;;;;;;;;;;;3.96;75.39;100310.22;7360613;19;19940;-60
2022/02/04 06:25:51;;;;;;;;;;;;;;;3.98;75.58;100313.66;7365392;19;20707;-59
2022/02/04 06:28:17;;;;;;;;;;;;;;;4.00;75.31;100314.50;7358540;19;19929;-61
2022/02/04 06:30:45;;;;;;;;;;;;;;;4.02;75.42;100315.38;7355790;19;19922;-59
2022/02/04 06:33:10;;;;;;;;;;;;;;;4.04;75.64;100323.97;7366911;19;19934;-59
2022/02/04 06:35:35;;;;;;;;;;;;;;;4.07;75.54;100318.81;7358183;19;19922;-60
2022/02/04 06:38:01;;;;;;;;;;;;;;;4.09;75.29;100323.09;7366409;19;20632;-60
2022/02/04 06:40:26;;;;;;;;;;;;;;;4.11;75.16;100321.38;7362431;19;19936;-60
2022/02/04 06:42:54;;;;;;;;;;;;;;;4.12;75.46;100330.00;7365217;19;19923;-60
2022/02/04 06:45:32;;;;;;;;;;;;;;;4.10;75.25;100331.72;3006196;19;10021828;-61
2022/02/04 06:47:57;;;;;;;;;;;;;;;4.14;75.25;100338.59;6045722;19;10000855;-60
2022/02/04 06:50:23;;;;;;;;;;;;;;;4.15;75.03;100345.47;7364670;19;20355;-61
2022/02/04 06:52:48;;;;;;;;;;;;;;;4.15;75.28;100351.50;7356475;19;19919;-61
2022/02/04 06:55:13;;;;;;;;;;;;;;;4.15;75.17;100341.16;7363250;19;19915;-59
2022/02/04 06:57:44;;;;;;;;;;;;;;;4.15;74.71;100348.06;7357967;19;19949;-60
2022/02/04 07:00:10;;;;;;;;;;;;;;;4.15;74.81;100342.88;7365047;19;19919;-60
2022/02/04 07:02:35;;;;;;;;;;;;;;;4.15;74.80;100340.31;7343573;19;19914;-60
2022/02/04 07:05:08;;;;;;;;;;;;;;;4.13;75.18;100339.47;7351633;19;19990;-60
2022/02/04 07:07:34;;;;;;;;;;;;;;;4.13;74.97;100344.63;7359162;19;19970;-61
2022/02/04 07:10:09;;;;;;;;;;;;;;;4.11;74.99;100338.63;7360141;19;19914;-61
2022/02/04 07:12:36;;;;;;;;;;;;;;;4.11;74.85;100330.88;7365576;19;19929;-60
2022/02/04 07:15:24;;;;;;;;;;;;;;;4.10;75.02;100329.13;7363769;19;19945;-60
2022/02/04 07:18:02;;;;;;;;;;;;;;;4.08;74.83;100326.56;7365141;19;20964;-60
2022/02/04 07:20:27;;;;;;;;;;;;;;;4.07;74.65;100339.47;7359303;19;19923;-61
2022/02/04 07:22:52;;;;;;;;;;;;;;;4.05;74.95;100336.03;7366757;19;19931;-61
2022/02/04 07:25:17;;;;;;;;;;;;;;;4.03;74.79;100333.44;7363397;19;19949;-60
2022/02/04 07:27:44;;;;;;;;;;;;;;;4.02;74.93;100336.06;7360506;19;19923;-60
2022/02/04 07:30:11;;;;;;;;;;;;;;;3.99;75.16;100346.38;7364583;19;20084;-60
2022/02/04 07:32:45;;;;;;;;;;;;;;;3.97;74.82;100358.44;7360021;19;21407;-61
2022/02/04 07:35:31;;;;;;;;;;;;;;;3.96;74.91;100359.31;7358840;19;19926;-61
2022/02/04 07:40:56;;;;;;;;;;;;;;;3.93;75.05;100372.22;7358805;19;19917;-60
2022/02/04 07:43:22;;;;;;;;;;;;;;;3.91;75.32;100379.97;7355804;19;19914;-61
2022/02/04 07:45:48;;;;;;;;;;;;;;;3.84;74.88;100376.53;7358838;19;19935;-60
2022/02/04 07:48:14;;;;;;;;;;;;;;;3.90;75.21;100379.13;7360010;19;19911;-60
2022/02/04 07:50:39;;;;;;;;;;;;;;;3.90;75.17;100375.66;7360644;19;19960;-60
2022/02/04 07:53:04;;;;;;;;;;;;;;;3.92;75.54;100388.59;7361017;19;20265;-61
2022/02/04 07:55:30;;;;;;;;;;;;;;;3.91;75.16;100387.72;7357495;19;19941;-60
2022/02/04 07:57:55;;;;;;;;;;;;;;;3.93;75.12;100395.47;7362008;19;19930;-60
2022/02/04 08:00:21;;;;;;;;;;;;;;;3.93;75.47;100400.63;7357961;19;19918;-59
2022/02/04 08:02:47;;;;;;;;;;;;;;;3.94;75.22;100397.19;7361962;19;19933;-61
2022/02/04 08:05:16;;;;;;;;;;;;;;;3.94;75.36;100394.59;7359535;19;19947;-60
2022/02/04 08:07:54;;;;;;;;;;;;;;;3.95;75.21;100385.97;7363098;19;19941;-59
2022/02/04 08:11:26;;;;;;;;;;;;;;;3.94;75.23;100389.44;7355213;19;20009;-60
2022/02/04 08:13:30;;;;;;;;;;;;;;;3.95;75.30;100406.66;7251866;19;2004641;-61
2022/02/04 08:16:30;;;;;;;;;;;;;;;3.93;75.25;100403.22;7364533;19;19957;-61
2022/02/04 08:29:41;;;;;;;;;;;;;;;3.89;75.56;100416.13;7360284;19;20336;-62
2022/02/04 08:47:48;;;;;;;;;;;;;;;3.89;75.31;100434.22;7359685;19;19943;-61
2022/02/04 08:55:21;;;;;;;;;;;;;;;3.96;75.75;100449.72;7363852;19;21038;-60
2022/02/04 08:58:05;;;;;;;;;;;;;;;4.02;75.66;100452.31;7239554;19;19911;-60
2022/02/04 09:00:43;;;;;;;;;;;;;;;4.08;75.79;100458.31;3601168;19;10001487;-61
2022/02/04 09:03:25;;;;;;;;;;;;;;;4.15;75.68;100462.63;7363160;19;19926;-61
2022/02/04 09:06:03;;;;;;;;;;;;;;;4.22;75.74;100472.97;7358823;19;19923;-60
2022/02/04 09:08:30;;;;;;;;;;;;;;;4.30;75.88;100481.56;7361868;19;19935;-60
2022/02/04 09:11:01;;;;;;;;;;;;;;;4.34;75.42;100484.16;7346926;19;19931;-60
2022/02/04 09:19:01;;;;;;;;;;;;;;;4.65;76.09;100477.22;7362836;19;19925;-61
2022/02/04 09:24:11;;;;;;;;;;;;;;;4.90;76.20;100475.41;7361483;19;20400;-61
2022/02/04 09:26:39;;;;;;;;;;;;;;;5.03;76.08;100478.84;7351547;19;19974;-61
2022/02/04 09:29:04;;;;;;;;;;;;;;;5.24;76.44;100469.25;7361647;19;19927;-61
2022/02/04 09:31:29;;;;;;;;;;;;;;;5.42;76.26;100474.34;7358113;19;19918;-59
2022/02/04 09:33:55;;;;;;;;;;;;;;;5.60;75.75;100468.19;7338767;19;20443;-59
2022/02/04 09:36:20;;;;;;;;;;;;;;;5.76;75.71;100474.16;7365589;19;19922;-60
2022/02/04 09:38:45;;;;;;;;;;;;;;;5.94;76.22;100469.72;7343291;19;19910;-61
2022/02/04 09:41:11;;;;;;;;;;;;;;;6.14;75.90;100481.69;7352923;19;19915;-60
2022/02/04 09:43:36;;;;;;;;;;;;;;;6.31;75.62;100490.16;7361127;19;19935;-62
2022/02/04 09:46:01;;;;;;;;;;;;;;;6.52;75.40;100496.03;7351012;19;20349;-61
2022/02/04 09:48:28;;;;;;;;;;;;;;;6.69;74.92;100492.41;7362589;19;19929;-60
2022/02/04 09:50:55;;;;;;;;;;;;;;;6.86;75.11;100510.41;7346600;19;19911;-61
2022/02/04 10:04:52;;;;;;;;;;;;;;;7.98;74.63;100515.00;7251319;19;2004499;-61
2022/02/04 10:18:03;;;;;;;;;;;;;;;8.91;72.71;100527.38;7364488;19;19944;-60
2022/02/04 10:20:29;;;;;;;;;;;;;;;8.98;72.66;100513.34;7362750;19;19926;-61
2022/02/04 10:22:54;;;;;;;;;;;;;;;9.06;72.71;100527.94;7358501;19;20345;-61
2022/02/04 10:25:19;;;;;;;;;;;;;;;9.19;72.41;100538.13;7358031;19;19918;-60
2022/02/04 10:27:46;;;;;;;;;;;;;;;9.35;72.59;100544.75;7352730;19;19935;-62
2022/02/04 10:30:15;;;;;;;;;;;;;;;9.55;72.33;100541.72;7356989;19;19933;-61
2022/02/04 10:32:40;;;;;;;;;;;;;;;9.74;72.12;100557.84;7359030;19;19923;-61
2022/02/04 10:35:07;;;;;;;;;;;;;;;9.96;71.91;100553.88;7356020;19;19934;-60
2022/02/04 10:37:35;;;;;;;;;;;;;;;10.17;71.50;100562.09;7355171;19;19922;-60
2022/02/04 10:40:09;;;;;;;;;;;;;;;10.36;71.77;100568.63;7350945;19;19956;-62
2022/02/04 10:45:55;;;;;;;;;;;;;;;10.78;70.68;100576.28;7250452;19;2004357;-61
2022/02/04 10:51:23;;;;;;;;;;;;;;;10.69;69.84;100589.59;7359559;19;19926;-62
2022/02/04 10:54:07;;;;;;;;;;;;;;;10.53;69.26;100597.78;7346482;19;19926;-62
2022/02/04 10:57:02;;;;;;;;;;;;;;;10.33;69.58;100620.91;7364067;19;19927;-60
2022/02/04 11:00:52;;;;;;;;;;;;;;;10.11;69.03;100605.69;7252996;19;2004648;-61
2022/02/04 11:03:08;;;;;;;;;;;;;;;9.81;69.08;100590.72;4130094;19;10001584;-61
2022/02/04 11:05:43;;;;;;;;;;;;;;;9.64;68.84;100598.03;5525906;19;10001211;-61
2022/02/04 11:35:30;;;;;;;;;;;;;;;8.48;71.17;100586.25;7351757;19;19956;-61
2022/02/04 11:52:24;;;;;;;;;;;;;;;9.82;70.72;100595.03;7357351;19;19940;-62
2022/02/04 11:54:54;;;;;;;;;;;;;;;10.03;70.59;100580.66;7263201;19;2004265;-61
2022/02/04 11:57:20;;;;;;;;;;;;;;;10.31;70.67;100567.88;7347286;19;19940;-60
2022/02/04 11:59:47;;;;;;;;;;;;;;;10.56;70.21;100570.75;7363622;19;19919;-62
2022/02/04 12:02:25;;;;;;;;;;;;;;;10.84;69.89;100589.19;7368727;19;19915;-61
2022/02/04 12:07:33;;;;;;;;;;;;;;;11.22;67.67;100582.13;7364468;19;19971;-61
2022/02/04 12:10:01;;;;;;;;;;;;;;;11.26;67.31;100583.75;7355710;19;20413;-61
2022/02/04 12:12:45;;;;;;;;;;;;;;;11.36;67.04;100585.22;7366271;19;19914;-61
2022/02/04 12:18:10;;;;;;;;;;;;;;;11.68;67.08;100579.91;7354076;19;19922;-61
2022/02/04 12:20:45;;;;;;;;;;;;;;;11.82;67.13;100568.22;7363237;19;19941;-61
2022/02/04 12:23:29;;;;;;;;;;;;;;;11.98;67.19;100571.25;7360256;19;19919;-60
2022/02/04 12:25:58;;;;;;;;;;;;;;;12.16;66.22;100562.81;7364272;19;20673;-60
2022/02/04 12:28:42;;;;;;;;;;;;;;;12.25;66.42;100562.50;7355547;19;19941;-60
2022/02/04 12:31:09;;;;;;;;;;;;;;;12.35;66.13;100568.31;7350971;19;20650;-60
2022/02/04 12:33:45;;;;;;;;;;;;;;;12.44;65.40;100568.88;7347751;19;19942;-60
2022/02/04 12:36:19;;;;;;;;;;;;;;;12.57;64.80;100581.56;7362850;19;19948;-60
2022/02/04 12:38:45;;;;;;;;;;;;;;;12.66;64.10;100595.22;7353487;19;20337;-62
2022/02/04 12:41:31;;;;;;;;;;;;;;;12.69;63.70;100600.38;7352342;19;19930;-61
2022/02/04 12:43:57;;;;;;;;;;;;;;;12.66;63.96;100616.19;7367448;19;19953;-62
2022/02/04 12:46:23;;;;;;;;;;;;;;;12.63;63.45;100608.44;7349264;19;20136;-60
2022/02/04 12:48:59;;;;;;;;;;;;;;;12.56;62.69;100608.66;7355410;19;20325;-60
2022/02/04 12:51:38;;;;;;;;;;;;;;;12.45;63.04;100611.63;7361698;19;19926;-61
2022/02/04 12:54:03;;;;;;;;;;;;;;;12.39;63.31;100609.22;7351911;19;19926;-61
2022/02/04 12:56:39;;;;;;;;;;;;;;;12.38;63.41;100620.59;7363314;19;19914;-60
2022/02/04 12:59:35;;;;;;;;;;;;;;;12.35;62.95;100605.81;7360819;19;20431;-62
2022/02/04 13:02:06;;;;;;;;;;;;;;;12.39;62.73;100609.22;7254114;19;2004327;-60
2022/02/04 13:07:43;;;;;;;;;;;;;;;12.47;63.79;100625.56;7357212;19;19988;-60
2022/02/04 13:10:08;;;;;;;;;;;;;;;12.66;63.50;100608.31;7249197;19;2004609;-61
2022/02/04 13:12:53;;;;;;;;;;;;;;;12.84;63.35;100609.50;7346448;19;19994;-62
2022/02/04 13:15:19;;;;;;;;;;;;;;;12.99;61.96;100627.31;7350766;19;19941;-62
2022/02/04 13:17:44;;;;;;;;;;;;;;;13.01;61.41;100637.75;7362558;19;19922;-61
2022/02/04 13:20:10;;;;;;;;;;;;;;;12.88;59.79;100637.31;7360790;19;19927;-60
2022/02/04 13:22:38;;;;;;;;;;;;;;;12.76;56.90;100647.31;7354803;19;19941;-64
2022/02/04 13:25:16;;;;;;;;;;;;;;;12.43;57.08;100671.06;7358711;19;20400;-64
2022/02/04 13:28:00;;;;;;;;;;;;;;;11.96;57.59;100670.72;7351923;19;19922;-62
2022/02/04 13:30:26;;;;;;;;;;;;;;;11.42;58.19;100671.31;7367411;19;20052;-62
2022/02/04 13:32:51;;;;;;;;;;;;;;;10.96;58.70;100671.66;7364271;19;19926;-61
2022/02/04 13:35:40;;;;;;;;;;;;;;;10.53;59.55;100676.13;7370296;19;20055;-59
2022/02/04 13:38:17;;;;;;;;;;;;;;;10.09;60.59;100654.47;7358914;19;19926;-61
2022/02/04 13:40:44;;;;;;;;;;;;;;;9.74;61.48;100654.34;7363932;19;20243;-61
2022/02/04 13:43:20;;;;;;;;;;;;;;;9.47;61.88;100638.31;7349861;19;19927;-61
2022/02/04 13:45:54;;;;;;;;;;;;;;;9.29;63.67;100644.75;7351554;19;19983;-60
2022/02/04 13:48:33;;;;;;;;;;;;;;;9.25;64.65;100647.44;7359198;19;19918;-59
2022/02/04 13:51:15;;;;;;;;;;;;;;;9.34;66.15;100647.28;7357547;19;19927;-61
2022/02/04 13:54:00;;;;;;;;;;;;;;;9.55;66.39;100654.69;7363630;19;19910;-60
2022/02/04 13:56:44;;;;;;;;;;;;;;;9.79;66.73;100657.72;7346313;19;19915;-61
2022/02/04 13:59:29;;;;;;;;;;;;;;;10.06;67.16;100661.50;7353733;19;19953;-61
2022/02/04 14:02:05;;;;;;;;;;;;;;;10.36;66.80;100662.59;7352993;19;20418;-59
2022/02/04 14:04:30;;;;;;;;;;;;;;;10.63;67.03;100667.19;7357634;19;19918;-61
2022/02/04 14:07:07;;;;;;;;;;;;;;;10.85;66.57;100656.25;7356789;19;20018;-61
2022/02/04 14:09:36;;;;;;;;;;;;;;;11.08;66.72;100656.50;7353609;19;19952;-62
2022/02/04 14:12:13;;;;;;;;;;;;;;;11.32;66.39;100662.00;7361148;19;19915;-61
2022/02/04 14:14:39;;;;;;;;;;;;;;;11.53;66.18;100664.03;7350723;19;19918;-61
2022/02/04 14:17:06;;;;;;;;;;;;;;;11.74;65.86;100669.59;7362629;19;19926;-60
2022/02/04 14:19:31;;;;;;;;;;;;;;;11.87;65.69;100665.75;7366861;19;19926;-62
2022/02/04 14:21:59;;;;;;;;;;;;;;;11.97;65.38;100679.44;7352336;19;19911;-61
2022/02/04 14:24:26;;;;;;;;;;;;;;;12.07;65.42;100673.03;7374933;19;19956;-59
2022/02/04 14:26:52;;;;;;;;;;;;;;;12.17;65.36;100680.56;7351941;19;19942;-61
2022/02/04 14:29:24;;;;;;;;;;;;;;;12.27;65.11;100685.53;7361567;19;19919;-61
2022/02/04 14:51:12;;;;;;;;;;;;;;;11.03;61.30;100692.34;7349850;19;19969;-61
2022/02/04 14:54:00;;;;;;;;;;;;;;;10.65;61.14;100701.97;7251118;19;2004355;-60
2022/02/04 15:01:47;;;;;;;;;;;;;;;9.92;63.37;100716.53;7362165;19;19922;-61
2022/02/04 15:04:23;;;;;;;;;;;;;;;9.80;63.85;100719.41;7351494;19;19915;-61
2022/02/04 15:06:57;;;;;;;;;;;;;;;9.70;63.86;100718.72;7364187;19;19990;-60
2022/02/04 15:09:22;;;;;;;;;;;;;;;9.60;64.02;100728.44;7357435;19;19927;-61
2022/02/04 15:11:48;;;;;;;;;;;;;;;9.53;64.16;100716.44;7364444;19;19947;-60
2022/02/04 15:14:15;;;;;;;;;;;;;;;9.44;64.01;100711.38;7354359;19;19925;-62
2022/02/04 15:16:43;;;;;;;;;;;;;;;9.36;64.39;100708.88;7362537;19;19923;-60
2022/02/04 15:19:09;;;;;;;;;;;;;;;9.24;64.70;100703.03;7362382;19;19919;-60
2022/02/04 15:21:34;;;;;;;;;;;;;;;9.22;64.87;100715.22;7351491;19;19934;-61
2022/02/04 15:23:59;;;;;;;;;;;;;;;9.14;64.64;100704.94;7364612;19;19919;-60
2022/02/04 15:26:27;;;;;;;;;;;;;;;9.06;64.93;100710.25;7349771;19;19940;-61
2022/02/04 15:28:58;;;;;;;;;;;;;;;8.99;64.89;100713.88;7362411;19;19928;-61
2022/02/04 15:33:53;;;;;;;;;;;;;;;8.88;65.67;100715.78;7365787;19;19927;-61
2022/02/04 15:36:26;;;;;;;;;;;;;;;8.92;66.89;100713.97;7362247;19;19914;-61
2022/02/04 15:38:52;;;;;;;;;;;;;;;9.04;67.31;100722.47;7365764;19;19937;-61
2022/02/04 15:41:18;;;;;;;;;;;;;;;9.24;67.73;100734.31;7364984;19;20948;-61
2022/02/04 15:43:48;;;;;;;;;;;;;;;9.46;68.23;100734.78;7365341;19;19919;-60
2022/02/04 15:51:35;;;;;;;;;;;;;;;10.12;67.30;100735.25;7358644;19;20264;-61
2022/02/04 16:02:18;;;;;;;;;;;;;;;10.24;64.66;100751.59;7376780;19;20555;-60
2022/02/04 16:04:33;;;;;;;;;;;;;;;10.08;63.70;100753.63;7365173;19;19922;-61
2022/02/04 16:06:58;;;;;;;;;;;;;;;9.92;63.82;100766.09;7369141;19;19964;-61
2022/02/04 16:09:25;;;;;;;;;;;;;;;9.73;63.48;100769.94;7360764;19;19923;-61
2022/02/04 16:12:11;;;;;;;;;;;;;;;9.55;63.54;100760.72;7356889;19;19921;-61
2022/02/04 16:17:21;;;;;;;;;;;;;;;9.16;63.53;100775.25;7357415;19;20494;-61
2022/02/04 16:20:04;;;;;;;;;;;;;;;8.97;63.62;100795.50;7357359;19;19919;-60
2022/02/04 16:22:42;;;;;;;;;;;;;;;8.79;63.85;100794.03;7358245;19;20289;-61
2022/02/04 16:25:19;;;;;;;;;;;;;;;8.64;63.73;100804.66;7365908;19;19919;-60
2022/02/04 16:30:11;;;;;;;;;;;;;;;8.37;64.19;100800.66;7365755;19;19914;-60
2022/02/04 16:32:36;;;;;;;;;;;;;;;8.27;64.50;100818.09;7360431;19;19919;-61
2022/02/04 16:35:04;;;;;;;;;;;;;;;8.16;64.59;100817.31;7359061;19;19936;-61
2022/02/04 16:37:33;;;;;;;;;;;;;;;8.05;64.69;100826.09;7364363;19;19978;-59
2022/02/04 16:39:59;;;;;;;;;;;;;;;7.97;64.74;100822.75;7354808;19;20408;-61
2022/02/04 16:42:27;;;;;;;;;;;;;;;7.89;65.10;100824.53;7365808;19;19922;-61
2022/02/04 16:44:52;;;;;;;;;;;;;;;7.82;65.43;100822.88;7361085;19;19919;-61
2022/02/04 16:47:17;;;;;;;;;;;;;;;7.75;65.46;100834.19;7369187;19;19922;-61
2022/02/04 16:49:43;;;;;;;;;;;;;;;7.68;65.22;100832.53;7369510;19;19923;-61
2022/02/04 16:52:08;;;;;;;;;;;;;;;7.60;65.58;100839.53;7368992;19;19911;-60
2022/02/04 16:54:34;;;;;;;;;;;;;;;7.51;65.72;100838.75;7363013;19;19927;-61
2022/02/04 16:57:04;;;;;;;;;;;;;;;7.38;65.34;100837.09;3548136;19;10021869;-61
2022/02/04 16:59:30;;;;;;;;;;;;;;;7.36;65.45;100846.66;5126763;19;10001160;-60
2022/02/04 17:01:57;;;;;;;;;;;;;;;7.24;65.85;100849.31;7358814;19;19941;-60
2022/02/04 17:04:23;;;;;;;;;;;;;;;7.21;66.00;100872.75;7364463;19;19953;-60
2022/02/04 17:06:56;;;;;;;;;;;;;;;7.14;65.83;100878.81;7357686;19;19927;-60
2022/02/04 17:09:26;;;;;;;;;;;;;;;7.07;65.87;100877.16;7353584;19;19906;-62
2022/02/04 17:12:01;;;;;;;;;;;;;;;6.99;66.13;100879.75;7355249;19;19915;-61
2022/02/04 17:14:26;;;;;;;;;;;;;;;6.91;65.98;100882.41;7364422;19;19936;-61
2022/02/04 17:16:52;;;;;;;;;;;;;;;6.84;66.16;100885.88;7359636;19;19915;-61
2022/02/04 17:19:22;;;;;;;;;;;;;;;6.78;66.63;100885.06;7357605;19;19939;-61
2022/02/04 17:21:51;;;;;;;;;;;;;;;6.71;66.72;100887.69;7362320;19;25201;-60
2022/02/04 17:24:18;;;;;;;;;;;;;;;6.66;66.71;100886.00;7365149;19;19973;-60
2022/02/04 17:26:43;;;;;;;;;;;;;;;6.61;66.75;100882.53;7368214;19;20439;-60
2022/02/04 17:29:09;;;;;;;;;;;;;;;6.56;66.62;100894.66;7372562;19;19919;-60
2022/02/04 17:31:35;;;;;;;;;;;;;;;6.49;67.00;100894.69;7370838;19;19910;-59
2022/02/04 17:34:00;;;;;;;;;;;;;;;6.45;66.78;100903.34;7368938;19;19918;-60
2022/02/04 17:36:26;;;;;;;;;;;;;;;6.40;67.10;100909.41;7372107;19;19945;-59
2022/02/04 17:38:55;;;;;;;;;;;;;;;6.36;67.27;100918.06;7364203;19;19915;-60
2022/02/04 17:41:20;;;;;;;;;;;;;;;6.31;67.48;100928.44;7364475;19;19944;-61
2022/02/04 17:43:48;;;;;;;;;;;;;;;6.27;67.54;100929.31;7361045;19;19926;-61
2022/02/04 17:46:13;;;;;;;;;;;;;;;6.23;67.57;100933.66;7355302;19;19974;-61
2022/02/04 17:48:48;;;;;;;;;;;;;;;6.21;67.67;100931.91;7361923;19;19978;-60
2022/02/04 17:53:55;;;;;;;;;;;;;;;6.15;67.68;100926.75;7360318;19;19933;-61
2022/02/04 17:56:50;;;;;;;;;;;;;;;6.11;67.93;100933.66;7361573;19;20506;-61
2022/02/04 18:05:31;;;;;;;;;;;;;;;6.03;67.86;100944.88;7363251;19;19941;-60
2022/02/04 18:07:31;;;;;;;;;;;;;;;6.00;67.85;100956.13;7360296;19;19938;-61
2022/02/04 18:09:56;;;;;;;;;;;;;;;5.97;67.76;100958.72;7361430;19;19919;-61
2022/02/04 18:12:24;;;;;;;;;;;;;;;5.96;68.10;100969.94;7353341;19;19986;-61
2022/02/04 18:14:50;;;;;;;;;;;;;;;5.93;68.07;100980.31;7360730;19;20282;-61
2022/02/04 18:17:16;;;;;;;;;;;;;;;5.91;67.94;100985.50;7363881;19;19939;-60
2022/02/04 18:19:42;;;;;;;;;;;;;;;5.87;68.05;100981.13;7346381;19;19929;-61
2022/02/04 18:22:07;;;;;;;;;;;;;;;5.85;67.85;100988.06;7362335;19;20011;-61
2022/02/04 18:24:32;;;;;;;;;;;;;;;5.83;68.47;101004.44;7364417;19;19914;-60
2022/02/04 18:26:57;;;;;;;;;;;;;;;5.81;68.08;101001.88;7355952;19;20295;-61
2022/02/04 18:29:23;;;;;;;;;;;;;;;5.78;68.17;101001.88;7352984;19;19959;-61